KMSN/MSN METAR and TAF weather

Enter ICAO airport designator
Station Type Date Time Source
KMSN METAR 2019/04/23 03:53 UTC NOAA

KMSN 230353Z 03008KT 8SM BKN006 OVC012 11/10 A2980 RMK AO2 SLP091 LAST T01110100


Station Type Date Time Source
KMSN Decoded METAR 2019/04/23 03:53 UTC NOAA

MADISON DANE COUNTY RGNL, WI, United States (KMSN) 43-08N 89-21W 261M
Apr 22, 2019 - 11:53 PM EDT / 2019.04.23 0353 UTC
Wind: from the NNE (030 degrees) at 9 MPH (8 KT):0
Visibility: 8 mile(s):0
Sky conditions: overcast
Temperature: 52.0 F (11.1 C)
Dew Point: 50.0 F (10.0 C)
Relative Humidity: 92%
Pressure (altimeter): 29.8 in. Hg (1009 hPa)
ob: KMSN 230353Z 03008KT 8SM BKN006 OVC012 11/10 A2980 RMK AO2 SLP091 LAST T01110100
cycle: 4

Station Type Date Time Source
KMSN TAF 2019/04/23 04:06 UTC NOAA

TAF
AMD KMSN 230404Z 2304/2324 02011G18KT P6SM VCSH BKN005 OVC015
TEMPO 2305/2308 4SM -SHRA
FM230900 34010G19KT P6SM OVC005
FM231500 34013KT P6SM BKN021
FM231800 35011KT P6SM FEW250

Example: see airport list